Time;durP1;ratioP1;P1;durP2;ratioP2;P2;SDS_P1;SDS_P2;PMS_P1;PMS_P2;Temp;Humidity;BMP_temperature;BMP_pressure;BME280_temperature;BME280_humidity;BME280_pressure;Samples;Min_cycle;Max_cycle;Signal;HPM_P1;HPM_P2
2022/08/09 00:01:48;;;;;;;6.90;3.30;;;;;;;19.32;58.36;98652.40;106138;1271;25286;-82
2022/08/09 00:04:22;;;;;;;4.90;3.10;;;;;;;19.39;58.42;98655.71;106199;1271;23916;-82
2022/08/09 00:07:03;;;;;;;8.60;2.80;;;;;;;19.46;58.30;98646.77;106024;1274;22750;-82
2022/08/09 00:09:38;;;;;;;4.90;2.90;;;;;;;19.49;58.07;98645.05;106084;1271;25433;-82
2022/08/09 00:12:08;;;;;;;5.20;2.90;;;;;;;19.48;57.93;98644.92;106256;1271;22550;-82
2022/08/09 00:14:50;;;;;;;5.00;3.10;;;;;;;19.46;58.10;98649.16;106446;1271;26608;-83
2022/08/09 00:17:24;;;;;;;6.20;3.10;;;;;;;19.51;58.06;98646.51;106235;1271;25439;-83
2022/08/09 00:20:12;;;;;;;6.50;2.70;;;;;;;19.53;57.96;98645.17;106258;1271;22531;-83
2022/08/09 00:22:42;;;;;;;5.90;2.90;;;;;;;19.54;57.83;98645.98;106131;1271;24272;-83
2022/08/09 00:25:15;;;;;;;7.40;2.80;;;;;;;19.49;57.73;98651.52;106116;1271;24412;-84
2022/08/09 00:27:59;;;;;;;5.40;3.00;;;;;;;19.44;57.79;98651.73;106159;1271;22631;-83
2022/08/09 00:30:32;;;;;;;9.40;2.90;;;;;;;19.45;57.75;98654.02;106157;1272;25441;-83
2022/08/09 00:33:00;;;;;;;9.60;2.80;;;;;;;19.39;57.84;98653.58;106074;1271;24578;-84
2022/08/09 00:35:28;;;;;;;7.60;3.50;;;;;;;19.40;57.86;98656.13;106024;1271;22554;-82
2022/08/09 00:38:11;;;;;;;6.30;2.90;;;;;;;19.40;57.71;98654.35;106041;1271;22688;-83
2022/08/09 00:40:40;;;;;;;10.40;2.90;;;;;;;19.41;57.79;98653.50;106070;1271;22859;-83
2022/08/09 00:43:21;;;;;;;4.70;2.40;;;;;;;19.43;57.61;98657.48;106034;1271;25308;-81
2022/08/09 00:46:09;;;;;;;4.50;2.30;;;;;;;19.41;57.55;98659.77;106026;1271;23936;-81
2022/08/09 00:48:55;;;;;;;8.00;2.70;;;;;;;19.40;57.60;98656.21;106067;1271;26558;-82
2022/08/09 00:51:26;;;;;;;7.30;2.90;;;;;;;19.42;57.43;98657.28;106197;1271;25338;-82
2022/08/09 00:54:01;;;;;;;4.60;2.50;;;;;;;19.44;57.35;98661.25;106211;1271;25275;-84
2022/08/09 00:56:29;;;;;;;9.20;2.90;;;;;;;19.42;57.22;98665.42;106158;1272;22547;-82
2022/08/09 00:58:57;;;;;;;7.20;3.20;;;;;;;19.35;57.06;98659.06;106181;1271;26723;-82
2022/08/09 01:01:33;;;;;;;5.40;2.60;;;;;;;19.31;57.18;98661.59;106028;1272;22730;-82
2022/08/09 01:04:22;;;;;;;4.70;3.00;;;;;;;19.23;57.04;98658.36;106050;1271;22554;-82
2022/08/09 01:06:59;;;;;;;7.10;2.60;;;;;;;19.14;57.00;98658.98;106201;1271;22740;-82
2022/08/09 01:09:38;;;;;;;6.20;2.90;;;;;;;19.09;57.05;98661.67;106168;1272;24232;-82
2022/08/09 01:12:45;;;;;;;5.10;2.80;;;;;;;19.04;57.03;98660.98;106236;1272;22656;-82
2022/08/09 01:15:17;;;;;;;5.70;2.60;;;;;;;18.94;56.97;98659.69;106135;1272;25316;-83
2022/08/09 01:18:08;;;;;;;5.60;2.60;;;;;;;18.91;57.26;98659.27;106105;1271;22562;-82
2022/08/09 01:20:47;;;;;;;5.90;2.90;;;;;;;18.98;57.32;98661.23;106012;1271;22547;-83
2022/08/09 01:23:28;;;;;;;9.00;2.70;;;;;;;18.98;56.96;98659.91;106041;1271;22621;-81
2022/08/09 01:26:56;;;;;;;5.70;2.70;;;;;;;18.95;57.09;98660.72;106025;1271;22826;-81
2022/08/09 01:29:36;;;;;;;6.40;2.80;;;;;;;18.94;57.18;98659.84;106023;1274;24642;-82
2022/08/09 01:32:18;;;;;;;7.00;2.70;;;;;;;18.92;57.00;98660.45;106046;1272;23839;-82
2022/08/09 01:35:03;;;;;;;6.40;2.80;;;;;;;18.90;57.08;98660.92;106051;1272;26547;-82
2022/08/09 01:37:55;;;;;;;6.80;3.00;;;;;;;18.90;57.09;98663.20;106056;1272;22618;-82
2022/08/09 01:40:43;;;;;;;9.40;3.20;;;;;;;18.92;56.96;98667.71;106077;1274;25338;-82
2022/08/09 01:43:12;;;;;;;5.30;3.00;;;;;;;18.90;56.80;98665.16;106086;1271;25349;-83
2022/08/09 01:45:43;;;;;;;6.70;3.50;;;;;;;18.88;56.89;98666.14;106058;1271;22798;-83
2022/08/09 01:48:17;;;;;;;6.00;2.70;;;;;;;18.88;56.79;98666.55;106131;1271;25389;-83
2022/08/09 01:50:51;;;;;;;6.00;3.10;;;;;;;18.90;56.83;98667.86;106067;1274;24208;-83
2022/08/09 01:53:22;;;;;;;6.90;3.00;;;;;;;18.89;56.54;98665.58;106033;1271;25338;-83
2022/08/09 01:56:09;;;;;;;7.30;2.80;;;;;;;18.87;56.60;98665.75;106051;1271;22713;-82
2022/08/09 01:58:41;;;;;;;6.30;2.80;;;;;;;18.80;56.40;98669.48;106016;1274;22648;-82
2022/08/09 02:01:14;;;;;;;4.80;2.50;;;;;;;18.72;56.39;98671.88;106134;1272;25334;-82
2022/08/09 02:03:47;;;;;;;6.80;3.60;;;;;;;18.63;56.49;98674.89;106016;1271;24290;-83
2022/08/09 02:07:07;;;;;;;5.90;2.50;;;;;;;18.58;56.65;98676.89;106117;1272;22521;-83
2022/08/09 02:09:14;;;;;;;7.20;3.30;;;;;;;18.61;56.61;98678.56;106084;1271;22624;-83
2022/08/09 02:11:44;;;;;;;4.70;2.80;;;;;;;18.58;56.30;98674.73;106161;1271;22712;-84
2022/08/09 02:14:16;;;;;;;7.10;2.90;;;;;;;18.54;56.28;98677.43;106095;1271;23361;-83
2022/08/09 02:16:54;;;;;;;5.80;3.10;;;;;;;18.51;56.53;98679.59;106081;1271;24211;-81
2022/08/09 02:19:42;;;;;;;6.70;3.10;;;;;;;18.52;56.51;98679.85;105969;1271;25602;-80
2022/08/09 02:22:32;;;;;;;7.70;2.90;;;;;;;18.48;56.59;98684.15;106119;1271;22563;-84
2022/08/09 02:25:10;;;;;;;5.60;2.80;;;;;;;18.41;56.55;98679.83;106151;1271;25956;-82
2022/08/09 02:28:02;;;;;;;10.60;3.20;;;;;;;18.30;56.35;98676.91;106164;1271;22531;-85
2022/08/09 02:30:38;;;;;;;5.50;2.60;;;;;;;18.20;56.64;98678.01;106171;1271;23007;-82
2022/08/09 02:33:16;;;;;;;11.30;3.70;;;;;;;18.14;56.73;98677.77;106092;1271;25373;-82
2022/08/09 02:35:47;;;;;;;6.00;2.80;;;;;;;18.12;57.26;98674.10;106091;1271;22887;-83
2022/08/09 02:38:39;;;;;;;4.80;2.80;;;;;;;18.21;57.71;98677.73;106068;1271;24272;-83
2022/08/09 02:41:20;;;;;;;7.50;3.10;;;;;;;18.30;57.46;98672.86;106182;1271;25456;-83
2022/08/09 02:43:53;;;;;;;5.90;3.00;;;;;;;18.35;57.46;98673.38;106187;1271;22743;-83
2022/08/09 02:46:26;;;;;;;5.30;3.70;;;;;;;18.45;57.54;98674.35;106089;1271;25489;-81
2022/08/09 02:49:04;;;;;;;9.20;3.40;;;;;;;18.54;57.49;98676.53;106081;1271;22612;-82
2022/08/09 02:51:36;;;;;;;5.10;3.30;;;;;;;18.61;57.20;98674.98;106103;1271;22550;-81
2022/08/09 02:54:11;;;;;;;5.70;3.20;;;;;;;18.53;57.04;98672.03;106170;1271;23056;-82
2022/08/09 02:56:45;;;;;;;4.70;2.80;;;;;;;18.44;57.25;98675.25;106083;1271;25351;-83
2022/08/09 02:59:20;;;;;;;7.50;2.50;;;;;;;18.39;57.53;98677.44;106414;1271;24319;-82
2022/08/09 03:02:07;;;;;;;;;;;;;;;18.35;57.15;98673.52;106151;1271;22668;-84
2022/08/09 03:04:45;;;;;;;7.80;3.40;;;;;;;18.17;57.19;98679.36;106062;1271;25398;-83
2022/08/09 03:07:18;;;;;;;9.00;2.80;;;;;;;18.13;57.70;98679.13;106395;1271;22541;-80
2022/08/09 03:09:48;;;;;;;6.10;2.90;;;;;;;18.14;58.11;98676.94;106395;1271;24070;-82
2022/08/09 03:12:25;;;;;;;5.40;2.70;;;;;;;18.14;57.75;98678.54;106692;1271;25340;-83
2022/08/09 03:14:55;;;;;;;10.80;3.70;;;;;;;17.99;57.69;98680.36;106185;1271;25243;-83
2022/08/09 03:17:24;;;;;;;5.30;3.10;;;;;;;17.87;58.32;98687.30;106299;1271;25309;-84
2022/08/09 03:19:59;;;;;;;8.00;3.10;;;;;;;17.82;58.40;98689.96;106354;1271;22848;-86
2022/08/09 03:22:39;;;;;;;9.10;3.70;;;;;;;17.84;59.28;98688.02;106405;1271;23957;-82
2022/08/09 03:25:12;;;;;;;12.10;5.40;;;;;;;17.87;59.06;98686.90;107145;1271;24617;-81
2022/08/09 03:27:55;;;;;;;11.30;5.40;;;;;;;17.90;59.22;98689.13;107214;1272;23947;-84
2022/08/09 03:30:26;;;;;;;13.80;5.40;;;;;;;17.90;59.07;98688.42;106885;1271;23940;-84
2022/08/09 03:33:04;;;;;;;8.80;4.00;;;;;;;17.92;59.50;98690.36;106438;1271;24274;-83
2022/08/09 03:35:51;;;;;;;8.00;5.00;;;;;;;18.02;59.14;98688.34;106302;1274;25348;-83
2022/08/09 03:38:41;;;;;;;16.00;7.60;;;;;;;18.01;58.68;98689.45;106491;1274;22540;-82
2022/08/09 03:41:11;;;;;;;11.40;6.10;;;;;;;18.01;58.95;98687.79;106198;1271;22545;-81
2022/08/09 03:43:45;;;;;;;14.60;6.90;;;;;;;18.06;59.09;98687.34;106225;1271;23941;-83
2022/08/09 03:46:34;;;;;;;11.00;5.50;;;;;;;18.05;59.07;98683.95;106191;1274;22552;-82
2022/08/09 03:49:05;;;;;;;8.90;4.90;;;;;;;17.97;59.04;98682.17;106317;1274;22658;-83
2022/08/09 03:51:42;;;;;;;10.20;5.00;;;;;;;17.92;58.94;98682.59;106229;1274;24088;-82
2022/08/09 03:54:33;;;;;;;6.90;3.40;;;;;;;17.90;59.28;98681.48;106085;1271;26673;-84
2022/08/09 03:57:11;;;;;;;5.00;3.00;;;;;;;17.90;59.04;98686.33;106058;1274;22864;-84
2022/08/09 03:59:50;;;;;;;9.50;3.50;;;;;;;17.84;58.76;98686.08;106084;1271;25350;-83
2022/08/09 04:02:25;;;;;;;6.30;4.30;;;;;;;17.83;59.07;98687.04;106091;1274;24263;-83
2022/08/09 04:04:57;;;;;;;6.90;4.30;;;;;;;17.89;59.07;98684.90;106164;1274;22472;-82
2022/08/09 04:07:29;;;;;;;5.60;3.10;;;;;;;18.03;58.77;98681.40;106345;1271;25334;-83
2022/08/09 04:10:17;;;;;;;6.90;3.40;;;;;;;18.00;58.27;98681.19;106133;1272;22525;-82
2022/08/09 04:12:55;;;;;;;6.40;3.60;;;;;;;18.04;58.34;98686.23;106180;1271;24215;-81
2022/08/09 04:15:24;;;;;;;4.70;2.80;;;;;;;18.02;58.02;98686.83;106170;1274;24546;-81
2022/08/09 04:18:13;;;;;;;10.70;3.30;;;;;;;18.05;57.97;98687.38;106156;1274;25419;-81
2022/08/09 04:20:48;;;;;;;8.50;4.10;;;;;;;17.97;57.88;98690.50;106156;1274;25502;-81
2022/08/09 04:23:20;;;;;;;7.70;2.60;;;;;;;17.90;58.19;98691.30;106145;1274;22875;-81
2022/08/09 04:25:54;;;;;;;7.60;3.40;;;;;;;18.00;58.31;98688.56;106143;1272;22529;-81
2022/08/09 04:28:24;;;;;;;7.90;2.70;;;;;;;18.06;57.96;98690.49;106233;1272;25238;-80
2022/08/09 04:31:05;;;;;;;7.60;2.60;;;;;;;18.10;58.12;98689.48;106083;1272;22568;-81
2022/08/09 04:33:37;;;;;;;;;;;;;;;18.20;57.79;98690.30;106144;1271;25204;-81
2022/08/09 04:36:22;;;;;;;4.00;2.50;;;;;;;18.26;57.57;98689.30;106071;1271;22561;-82
2022/08/09 04:38:53;;;;;;;7.30;2.40;;;;;;;18.30;57.41;98693.98;106087;1271;22605;-81
2022/08/09 04:41:22;;;;;;;4.60;2.20;;;;;;;18.29;57.33;98695.95;106079;1272;23921;-83
2022/08/09 04:44:02;;;;;;;6.00;2.50;;;;;;;18.24;57.10;98694.16;106111;1274;22513;-82
2022/08/09 04:46:39;;;;;;;4.90;2.40;;;;;;;18.28;57.22;98690.00;106176;1271;25315;-81
2022/08/09 04:49:36;;;;;;;7.20;2.20;;;;;;;18.40;57.19;98690.30;106189;1271;22642;-81
2022/08/09 04:52:25;;;;;;;3.80;2.00;;;;;;;18.50;56.92;98688.83;106114;1272;23101;-80
2022/08/09 04:54:56;;;;;;;5.30;2.30;;;;;;;18.49;56.82;98692.39;106229;1271;24418;-81
2022/08/09 04:57:25;;;;;;;5.40;2.70;;;;;;;18.59;56.77;98697.59;106160;1271;22532;-82
2022/08/09 05:00:13;;;;;;;4.00;2.20;;;;;;;18.68;56.63;98700.41;106194;1271;24284;-86
2022/08/09 05:02:44;;;;;;;7.50;2.70;;;;;;;18.80;56.61;98700.41;106161;1271;25245;-81
2022/08/09 05:05:20;;;;;;;5.00;2.00;;;;;;;18.77;56.37;98695.79;106069;1273;22558;-80
2022/08/09 05:08:08;;;;;;;3.90;2.20;;;;;;;18.68;56.39;98693.86;106058;1271;23251;-81
2022/08/09 05:10:41;;;;;;;5.40;2.10;;;;;;;18.63;56.46;98695.96;106133;1271;24293;-83
2022/08/09 05:13:09;;;;;;;4.00;2.50;;;;;;;18.67;56.47;98700.84;106427;1271;24073;-83
2022/08/09 05:15:37;;;;;;;4.90;2.30;;;;;;;18.64;56.27;98705.04;106249;1271;22583;-82
2022/08/09 05:18:15;;;;;;;5.40;2.60;;;;;;;18.59;56.13;98705.33;106005;1274;22556;-81
2022/08/09 05:21:03;;;;;;;7.60;2.70;;;;;;;18.61;56.20;98710.06;106112;1271;22537;-81
2022/08/09 05:23:50;;;;;;;5.00;2.20;;;;;;;18.64;56.27;98710.65;106171;1271;25468;-83
2022/08/09 05:26:29;;;;;;;6.00;2.80;;;;;;;18.73;56.26;98715.13;106153;1271;22682;-83
2022/08/09 05:29:18;;;;;;;;;;;;;;;18.80;56.10;98718.95;106118;1271;22515;-82
2022/08/09 05:31:51;;;;;;;5.20;2.30;;;;;;;18.87;56.16;98717.23;106169;1271;25285;-83
2022/08/09 05:34:27;;;;;;;5.10;2.80;;;;;;;18.96;56.09;98719.37;106137;1271;24240;-82
2022/08/09 05:37:01;;;;;;;3.70;2.60;;;;;;;19.04;56.01;98719.59;106146;1271;25300;-82
2022/08/09 05:39:38;;;;;;;5.90;2.90;;;;;;;19.17;55.94;98718.58;106070;1271;22573;-83
2022/08/09 05:42:12;;;;;;;4.40;2.40;;;;;;;19.34;55.58;98723.08;106123;1271;22737;-82
2022/08/09 05:44:53;;;;;;;5.20;2.50;;;;;;;19.37;55.38;98719.58;106087;1271;25310;-82
2022/08/09 05:47:23;;;;;;;5.60;2.00;;;;;;;19.38;55.33;98722.43;106145;1271;23156;-85
2022/08/09 05:49:53;;;;;;;6.30;2.70;;;;;;;19.40;55.27;98723.45;106057;1271;24250;-85
2022/08/09 05:52:42;;;;;;;4.70;2.20;;;;;;;19.43;54.93;98722.77;106034;1272;22692;-86
2022/08/09 05:55:11;;;;;;;6.10;2.20;;;;;;;19.42;54.83;98724.84;106061;1271;22639;-85
2022/08/09 05:57:49;;;;;;;7.00;2.20;;;;;;;19.43;54.87;98726.05;106050;1271;24214;-87
2022/08/09 06:00:26;;;;;;;10.00;2.50;;;;;;;19.52;54.94;98727.59;106109;1272;25363;-87
2022/08/09 06:02:57;;;;;;;7.70;2.40;;;;;;;19.58;54.76;98723.42;106170;1271;22914;-86
2022/08/09 06:05:28;;;;;;;4.50;2.20;;;;;;;19.75;54.82;98729.59;106226;1271;25362;-85
2022/08/09 06:08:16;;;;;;;7.60;2.10;;;;;;;19.90;54.74;98727.91;106144;1271;22707;-84
2022/08/09 06:10:54;;;;;;;5.50;2.20;;;;;;;19.95;54.33;98728.33;106093;1274;25348;-85
2022/08/09 06:13:23;;;;;;;8.50;2.50;;;;;;;20.01;54.48;98728.17;106119;1274;22544;-85
2022/08/09 06:15:51;;;;;;;6.60;2.30;;;;;;;20.10;54.11;98724.94;106175;1271;22542;-84
2022/08/09 06:18:20;;;;;;;6.00;2.40;;;;;;;20.14;53.92;98724.23;106660;1271;22477;-85
2022/08/09 06:20:55;;;;;;;5.50;2.40;;;;;;;20.20;54.10;98726.61;108315;1271;22636;-84
2022/08/09 06:23:26;;;;;;;5.40;2.40;;;;;;;20.26;53.57;98727.66;106241;1271;25432;-85
2022/08/09 06:26:16;;;;;;;4.50;1.90;;;;;;;20.27;53.54;98732.46;106251;1271;25242;-84
2022/08/09 06:28:50;;;;;;;4.10;2.30;;;;;;;20.36;53.56;98735.25;106762;1271;25384;-85
2022/08/09 06:31:28;;;;;;;7.40;2.20;;;;;;;20.41;53.14;98732.53;106456;1272;22565;-85
2022/08/09 06:33:58;;;;;;;6.00;2.30;;;;;;;20.43;52.70;98732.35;106483;1271;22650;-84
2022/08/09 06:36:27;;;;;;;4.30;2.30;;;;;;;20.45;52.82;98729.42;106513;1271;23484;-85
2022/08/09 06:38:57;;;;;;;6.20;2.10;;;;;;;20.49;52.64;98730.88;106538;1274;22528;-85
2022/08/09 06:41:29;;;;;;;2.80;2.00;;;;;;;20.57;52.74;98732.48;106519;1274;24280;-85
2022/08/09 06:44:17;;;;;;;4.90;2.10;;;;;;;20.69;52.02;98735.81;106462;1274;23382;-85
2022/08/09 06:46:49;;;;;;;3.60;1.90;;;;;;;20.71;51.89;98732.90;106511;1274;22563;-84
2022/08/09 06:49:22;;;;;;;3.70;2.40;;;;;;;20.78;51.84;98731.96;106505;1274;24276;-84
2022/08/09 06:52:10;;;;;;;3.10;2.00;;;;;;;20.89;51.71;98730.61;106504;1274;25926;-85
2022/08/09 06:54:43;;;;;;;4.20;2.10;;;;;;;21.03;51.39;98731.11;106436;1274;23296;-86
2022/08/09 06:57:11;;;;;;;3.20;2.00;;;;;;;21.17;51.05;98737.27;106431;1274;25257;-91
2022/08/09 06:59:41;;;;;;;6.00;2.10;;;;;;;21.25;50.11;98735.19;106876;1274;22542;-92
2022/08/09 07:02:29;;;;;;;5.10;2.50;;;;;;;21.34;50.26;98739.57;107177;1274;25457;-88
2022/08/09 07:05:00;;;;;;;3.70;2.20;;;;;;;21.41;50.26;98743.39;106879;1273;22536;-89
2022/08/09 07:07:28;;;;;;;4.10;2.00;;;;;;;21.47;49.95;98741.61;106769;1274;22625;-92
2022/08/09 07:10:16;;;;;;;4.90;2.00;;;;;;;21.53;50.01;98738.73;107421;1274;24440;-90
2022/08/09 07:12:58;;;;;;;3.50;1.90;;;;;;;21.59;49.39;98746.16;107544;1274;24355;-90
2022/08/09 07:15:31;;;;;;;;;;;;;;;21.63;49.45;98752.39;107574;1274;22551;-91
2022/08/09 07:18:19;;;;;;;2.60;1.70;;;;;;;21.67;49.21;98753.98;107961;1274;25443;-89
2022/08/09 07:20:49;;;;;;;6.50;2.20;;;;;;;21.68;48.75;98755.25;107017;1274;22673;-92
2022/08/09 07:23:18;;;;;;;3.10;2.10;;;;;;;21.75;48.31;98753.87;107730;1274;24202;-90
2022/08/09 07:25:49;;;;;;;5.80;2.00;;;;;;;21.87;48.37;98754.25;108188;1274;22784;-90
2022/08/09 07:28:30;;;;;;;4.50;2.10;;;;;;;21.96;48.12;98753.62;109417;1273;24031;-90
2022/08/09 07:31:03;;;;;;;3.30;1.90;;;;;;;22.03;47.60;98752.55;108384;1274;22617;-90
2022/08/09 07:33:32;;;;;;;7.30;2.50;;;;;;;22.07;47.85;98756.34;107572;1274;22588;-89
2022/08/09 07:36:20;;;;;;;5.20;1.90;;;;;;;22.21;47.51;98759.38;107751;1274;22668;-92
2022/08/09 07:38:49;;;;;;;6.20;2.20;;;;;;;22.32;47.23;98763.00;107397;1274;22575;-90
2022/08/09 07:41:28;;;;;;;3.00;2.00;;;;;;;22.37;46.97;98760.85;106742;1274;22692;-90
2022/08/09 07:44:05;;;;;;;6.40;2.30;;;;;;;22.42;46.99;98761.69;106680;1274;26287;-91
2022/08/09 07:46:33;;;;;;;4.10;2.00;;;;;;;22.49;46.62;98760.27;106575;1274;23366;-88
2022/08/09 07:49:04;;;;;;;6.80;2.10;;;;;;;22.47;45.54;98760.77;106545;1274;25277;-88
2022/08/09 07:51:35;;;;;;;5.50;1.60;;;;;;;22.47;45.57;98764.80;106695;1274;22642;-92
2022/08/09 07:54:26;;;;;;;4.50;1.90;;;;;;;22.53;45.82;98765.22;106843;1272;23493;-91
2022/08/09 07:56:57;;;;;;;4.60;1.70;;;;;;;22.57;45.39;98762.51;107241;1274;22659;-89
2022/08/09 07:59:26;;;;;;;2.70;1.70;;;;;;;22.61;45.17;98760.33;107787;1274;22601;-94
2022/08/09 08:02:12;;;;;;;7.50;1.80;;;;;;;22.80;45.89;98766.70;107778;1274;23050;-80
2022/08/09 08:04:47;;;;;;;3.30;1.90;;;;;;;22.92;44.57;98769.95;106430;1274;25288;-81
2022/08/09 08:07:15;;;;;;;8.20;2.10;;;;;;;22.92;43.63;98766.73;106536;1274;22662;-82
2022/08/09 08:10:05;;;;;;;6.30;2.20;;;;;;;22.87;43.95;98772.83;106626;1274;24205;-88
2022/08/09 08:12:41;;;;;;;4.70;1.90;;;;;;;22.93;44.54;98775.55;106568;1274;24272;-84
2022/08/09 08:15:14;;;;;;;3.50;2.10;;;;;;;23.04;43.92;98772.52;106459;1274;24359;-87
2022/08/09 08:17:46;;;;;;;5.20;1.80;;;;;;;23.06;43.57;98769.27;106647;1274;22531;-87
2022/08/09 08:20:23;;;;;;;6.60;2.00;;;;;;;23.08;43.62;98766.88;106588;1274;22701;-86
2022/08/09 08:22:58;;;;;;;7.20;1.90;;;;;;;23.13;43.68;98767.91;106235;1274;22689;-84
2022/08/09 08:25:46;;;;;;;3.20;1.90;;;;;;;23.28;44.13;98771.29;106382;1274;22545;-83
2022/08/09 08:28:33;;;;;;;5.00;1.90;;;;;;;23.50;44.20;98772.98;106474;1274;26348;-86
2022/08/09 08:31:03;;;;;;;6.50;1.90;;;;;;;23.62;44.12;98772.95;106524;1273;24406;-84
2022/08/09 08:33:42;;;;;;;3.50;2.00;;;;;;;23.74;44.00;98772.19;106521;1274;23802;-87
2022/08/09 08:36:21;;;;;;;5.20;1.90;;;;;;;23.79;43.27;98775.36;108214;1274;22615;-86
2022/08/09 08:38:58;;;;;;;5.00;2.20;;;;;;;23.73;43.18;98773.67;106669;1274;23968;-85
2022/08/09 08:41:53;;;;;;;6.00;1.90;;;;;;;23.78;43.01;98778.72;106546;1274;24272;-85
2022/08/09 08:44:27;;;;;;;7.50;2.00;;;;;;;23.69;42.80;98782.80;106424;1274;24415;-85
2022/08/09 08:46:59;;;;;;;10.40;2.00;;;;;;;23.50;42.68;98783.35;106517;1274;22687;-85
2022/08/09 08:49:40;;;;;;;8.10;2.80;;;;;;;23.40;42.83;98780.71;106532;1272;23918;-85
2022/08/09 08:52:17;;;;;;;6.50;1.80;;;;;;;23.28;42.60;98784.31;106573;1274;22616;-86
2022/08/09 08:55:06;;;;;;;8.20;1.90;;;;;;;23.18;42.37;98784.05;106578;1274;22540;-84
2022/08/09 08:57:34;;;;;;;8.90;1.90;;;;;;;23.14;42.55;98786.30;106465;1274;24406;-85
2022/08/09 09:00:08;;;;;;;4.70;2.20;;;;;;;23.08;42.58;98784.63;106455;1274;25230;-84
2022/08/09 09:02:54;;;;;;;4.50;1.90;;;;;;;23.26;42.69;98782.55;106486;1274;22560;-83
2022/08/09 09:05:24;;;;;;;6.80;2.20;;;;;;;23.36;42.06;98782.99;106547;1274;22525;-85
2022/08/09 09:08:14;;;;;;;9.10;2.10;;;;;;;23.48;42.04;98780.73;106472;1274;25404;-85
2022/08/09 09:11:03;;;;;;;8.40;3.00;;;;;;;23.64;41.92;98784.64;106526;1274;23068;-86
2022/08/09 09:13:39;;;;;;;6.40;1.80;;;;;;;23.67;42.05;98783.69;106534;1274;23318;-85
2022/08/09 09:16:22;;;;;;;4.00;1.80;;;;;;;23.66;41.90;98783.48;106498;1274;22670;-86
2022/08/09 09:19:00;;;;;;;4.40;1.70;;;;;;;23.50;41.67;98781.70;106489;1274;23420;-85
2022/08/09 09:22:04;;;;;;;4.20;1.60;;;;;;;23.42;41.93;98782.16;106525;1274;22844;-86
2022/08/09 09:24:44;;;;;;;5.40;2.00;;;;;;;23.62;41.55;98778.56;106396;1274;22528;-86
2022/08/09 09:27:32;;;;;;;5.40;1.70;;;;;;;23.85;41.51;98778.61;106402;1274;22658;-86
2022/08/09 09:30:20;;;;;;;5.80;2.00;;;;;;;24.24;41.14;98780.46;106404;1274;25341;-85
2022/08/09 09:33:10;;;;;;;5.40;2.20;;;;;;;24.43;41.01;98782.05;106389;1274;23342;-85
2022/08/09 09:35:56;;;;;;;5.30;1.70;;;;;;;24.50;40.78;98784.52;106586;1274;24379;-86
2022/08/09 09:38:55;;;;;;;6.00;1.80;;;;;;;24.71;40.38;98784.06;106390;1273;25235;-84
2022/08/09 09:41:25;;;;;;;8.40;1.90;;;;;;;24.93;40.06;98778.95;107041;1273;22547;-86
2022/08/09 09:44:03;;;;;;;5.80;1.60;;;;;;;25.10;39.57;98777.85;107296;1274;24588;-90
2022/08/09 09:46:42;;;;;;;3.40;1.70;;;;;;;25.34;39.34;98786.73;106090;1274;24358;-85
2022/08/09 09:49:20;;;;;;;5.20;1.60;;;;;;;25.47;38.31;98780.91;106578;1274;25359;-83
2022/08/09 09:52:10;;;;;;;5.40;1.80;;;;;;;25.62;38.24;98780.91;105371;1274;1404318;-85
2022/08/09 09:55:05;;;;;;;5.90;2.00;;;;;;;25.78;37.43;98777.62;106319;1274;22556;-84
2022/08/09 09:57:57;;;;;;;;;;;;;;;25.89;37.10;98774.05;106127;1274;22717;-84
2022/08/09 10:00:49;;;;;;;3.60;1.40;;;;;;;25.96;36.42;98779.17;106254;1274;25236;-84
2022/08/09 10:03:40;;;;;;;4.20;1.60;;;;;;;25.65;35.62;98782.77;106260;1274;22522;-80
2022/08/09 10:06:11;;;;;;;3.40;1.50;;;;;;;25.55;36.48;98778.63;106258;1273;25341;-82
2022/08/09 10:08:41;;;;;;;2.60;1.60;;;;;;;25.44;36.22;98774.81;106252;1274;25458;-82
2022/08/09 10:11:30;;;;;;;3.40;2.00;;;;;;;25.38;35.89;98772.84;106262;1274;23198;-82
2022/08/09 10:14:27;;;;;;;4.80;1.70;;;;;;;25.22;35.89;98771.07;106222;1274;22654;-82
2022/08/09 10:17:10;;;;;;;7.10;1.70;;;;;;;24.92;36.37;98765.92;106426;1274;25321;-83
2022/08/09 10:20:18;;;;;;;3.50;1.70;;;;;;;24.79;36.81;98769.30;106327;1274;24330;-81
2022/08/09 10:23:21;;;;;;;3.10;1.40;;;;;;;24.97;36.51;98760.56;106216;1274;23958;-81
2022/08/09 10:25:50;;;;;;;4.20;1.70;;;;;;;25.04;36.41;98761.75;106206;1273;24215;-81
2022/08/09 10:28:40;;;;;;;4.60;1.90;;;;;;;24.95;36.66;98763.69;106264;1273;24221;-82
2022/08/09 10:31:15;;;;;;;6.40;1.80;;;;;;;24.78;36.32;98764.00;106251;1274;22748;-82
2022/08/09 10:34:04;;;;;;;5.40;1.70;;;;;;;24.83;36.39;98760.77;106194;1273;26553;-82
2022/08/09 10:36:55;;;;;;;4.00;1.70;;;;;;;24.98;36.03;98761.44;106255;1272;24406;-83
2022/08/09 10:39:25;;;;;;;3.70;1.60;;;;;;;25.23;36.34;98760.21;106187;1274;25235;-82
2022/08/09 10:41:55;;;;;;;7.30;1.70;;;;;;;25.47;36.34;98763.88;106111;1274;22561;-83
2022/08/09 10:44:29;;;;;;;4.40;1.70;;;;;;;25.72;36.41;98766.99;106203;1273;24267;-84
2022/08/09 10:47:29;;;;;;;2.90;1.60;;;;;;;25.92;34.48;98757.61;106303;1274;23323;-83
2022/08/09 10:54:01;;;;;;;4.00;1.80;;;;;;;25.74;35.15;98760.95;106209;1274;22749;-82
2022/08/09 10:56:34;;;;;;;6.00;2.20;;;;;;;26.04;34.87;98755.64;106186;1274;25332;-81
2022/08/09 10:59:25;;;;;;;5.40;1.60;;;;;;;26.37;35.37;98752.52;106295;1274;22912;-82
2022/08/09 11:01:58;;;;;;;3.70;1.90;;;;;;;26.74;34.55;98753.52;106210;1273;22696;-82
2022/08/09 11:05:13;;;;;;;5.00;1.60;;;;;;;26.72;34.12;98747.41;106259;1273;25500;-88
2022/08/09 11:08:35;;;;;;;1.80;1.30;;;;;;;26.64;34.79;98749.50;106007;1274;23228;-84
2022/08/09 11:11:16;;;;;;;8.20;1.70;;;;;;;26.61;35.21;98752.40;106651;1273;26606;-88
2022/08/09 11:13:44;;;;;;;4.20;1.80;;;;;;;26.76;34.44;98750.75;106343;1273;25335;-87
2022/08/09 11:16:32;;;;;;;5.70;2.60;;;;;;;26.86;34.76;98748.29;106388;1273;23287;-86
2022/08/09 11:19:05;;;;;;;4.80;2.00;;;;;;;26.73;34.26;98742.45;106284;1273;25459;-83
2022/08/09 11:21:56;;;;;;;3.50;1.60;;;;;;;26.45;34.64;98743.98;106349;1273;25307;-82
2022/08/09 11:25:14;;;;;;;7.00;2.30;;;;;;;26.12;34.86;98747.02;106495;1274;24270;-84
2022/08/09 11:27:52;;;;;;;3.00;1.60;;;;;;;25.83;35.21;98745.66;106501;1274;25342;-84
2022/08/09 11:30:40;;;;;;;2.80;1.50;;;;;;;25.78;35.55;98746.46;106145;1274;22687;-86
2022/08/09 11:33:20;;;;;;;4.90;1.80;;;;;;;26.04;35.47;98743.58;106555;1274;24185;-84
2022/08/09 11:35:59;;;;;;;3.50;1.70;;;;;;;26.05;35.35;98742.00;106409;1273;23909;-81
2022/08/09 11:38:30;;;;;;;7.30;1.70;;;;;;;25.81;34.72;98739.08;106442;1274;22723;-81
2022/08/09 11:41:27;;;;;;;7.90;1.70;;;;;;;25.52;35.00;98737.77;106542;1274;22684;-81
2022/08/09 11:44:07;;;;;;;4.60;1.70;;;;;;;25.23;35.65;98737.74;106529;1273;25462;-82
2022/08/09 11:46:58;;;;;;;3.40;1.80;;;;;;;25.39;35.75;98735.81;106435;1272;23455;-82
2022/08/09 11:50:00;;;;;;;3.80;1.80;;;;;;;25.80;35.61;98729.06;106499;1274;22875;-80
2022/08/09 11:53:18;;;;;;;5.30;1.60;;;;;;;26.27;35.16;98721.03;106450;1273;24929;-80
2022/08/09 11:56:14;;;;;;;3.80;1.60;;;;;;;26.76;35.09;98715.05;106272;1281;22632;-81
2022/08/09 11:58:57;;;;;;;5.90;1.90;;;;;;;26.81;34.96;98724.16;106051;1281;22911;-79
2022/08/09 12:01:37;;;;;;;3.00;1.50;;;;;;;26.65;34.70;98734.80;105970;1281;24406;-82
2022/08/09 12:04:26;;;;;;;3.40;1.60;;;;;;;26.32;34.90;98733.05;105894;1281;24376;-81
2022/08/09 12:07:05;;;;;;;2.80;1.60;;;;;;;26.05;35.09;98731.36;105866;1281;24612;-82
2022/08/09 12:09:35;;;;;;;4.10;1.70;;;;;;;25.74;35.03;98733.41;105707;1282;25316;-83
2022/08/09 12:12:04;;;;;;;8.20;1.90;;;;;;;25.48;35.17;98735.36;105889;1281;22553;-85
2022/08/09 12:14:52;;;;;;;5.30;1.60;;;;;;;25.20;35.64;98735.66;105878;1281;22634;-81
2022/08/09 12:17:36;;;;;;;6.20;1.70;;;;;;;24.98;35.58;98735.77;105745;1281;25399;-83
2022/08/09 12:20:18;;;;;;;6.00;1.80;;;;;;;24.79;36.00;98728.58;105867;1281;25398;-83
2022/08/09 12:23:01;;;;;;;4.40;1.80;;;;;;;24.64;36.05;98728.86;105927;1281;22688;-82
2022/08/09 12:25:31;;;;;;;6.40;1.80;;;;;;;24.57;36.13;98727.96;105625;1283;24367;-83
2022/08/09 12:28:15;;;;;;;6.90;1.70;;;;;;;24.54;36.36;98729.73;105887;1281;22562;-83